Terminal Aerodrome Forecast
Issued by NWS Wichita, KS

Home | Current Version | Previous Version | Text Only | Print | Product List | Glossary Off
Versions: 1 2 3 4 5 6 7 8 9 10 11 12 13 14 15 16 17 18 19

000
FTUS43 KICT 260948 AAC
TAFICT
TAF AMD
KICT 260948Z 2610/2706 33011KT P6SM OVC007
     FM261500 35011KT P6SM OVC010
     FM261700 01011KT P6SM OVC020
     FM262300 03009KT P6SM OVC040=

USA.gov is the U.S. government's official web portal to all federal, state and local government web resources and services.